Flight Track Log - Related Links

Times and Time Zones

All times are in EDT time to prevent confusion due to time zone crossing. See the JIA2310 flight status page for this flight to view local times or setup timezone preferences in your user account.

Time Position Orientation Groundspeed Altitude Reporting Facility
EDT Latitude Longitude Course Direction KTS MPH feet Rate Location/Type
Wed 06:47:15 PM 35.2311 -80.9542 277° West 153 176 1,500  Level FAA TRACON SMA TRACON (SMA)
Wed 06:51:15 PM 35.2583 -81.2306 199° South 280 322 8,400 1,943 Climbing FAA TRACON SMA TRACON (SMA)
Wed 06:51:56 PM 35.2067 -81.2525 196° South 279 321 10,600 2,475 Climbing FAA TRACON SMA TRACON (SMA)
Wed 06:52:35 PM 35.1581 -81.2692 198° South 283 326 11,700 1,443 Climbing FAA TRACON SMA TRACON (SMA)
Wed 06:53:15 PM 35.1025 -81.2914 235° Southwest 310 357 12,500 1,500 Climbing FAA TRACON SMA TRACON (SMA)
Wed 06:53:55 PM 35.0708 -81.3475 250° West 297 342 13,700 1,650 Climbing FAA TRACON SMA TRACON (SMA)
Wed 06:54:35 PM 35.0531 -81.4067 249° West 300 345 14,700 1,800 Climbing FAA TRACON SMA TRACON (SMA)
Wed 06:55:15 PM 35.0322 -81.4733 250° West 302 348 16,100 1,875 Climbing FAA TRACON SMA TRACON (SMA)
Wed 06:55:55 PM 35.0125 -81.5392 250° West 300 345 17,200 1,650 Climbing FAA TRACON SMA TRACON (SMA)
Wed 06:56:35 PM 34.9950 -81.5989 249° West 301 346 18,300 1,500 Climbing FAA TRACON SMA TRACON (SMA)
Wed 06:57:15 PM 34.9739 -81.6664 250° West 304 350 19,200 1,037 Climbing FAA TRACON SMA TRACON (SMA)
Wed 06:57:56 PM 34.9567 -81.7228 243° Southwest 310 357 19,700 1,082 Climbing FAA TRACON SMA TRACON (SMA)
Wed 06:59:17 PM 34.8939 -81.8736 235° Southwest 317 365 21,400 1,149 Climbing Atlanta Center
Wed 07:00:17 PM 34.8431 -81.9608 236° Southwest 326 375 22,400 1,000 Climbing Atlanta Center
Wed 07:01:17 PM 34.7925 -82.0508 235° Southwest 326 375 23,400 1,000 Climbing Atlanta Center
Wed 07:02:17 PM 34.7397 -82.1431 236° Southwest 333 383 24,400 1,000 Climbing Atlanta Center
Wed 07:03:17 PM 34.6889 -82.2350 224° Southwest 338 389 25,400 1,000 Climbing Atlanta Center
Wed 07:04:17 PM 34.6231 -82.3122 222° Southwest 333 383 26,400 800 Climbing Atlanta Center
Wed 07:05:17 PM 34.5533 -82.3892 222° Southwest 333 383 27,000 550 Climbing Atlanta Center
Wed 07:06:17 PM 34.4814 -82.4664 222° Southwest 344 396 27,500 500 Climbing Atlanta Center
Wed 07:07:17 PM 34.4092 -82.5458 220° Southwest 350 403 28,000 500 Climbing Atlanta Center
Wed 07:08:17 PM 34.3392 -82.6175 223° Southwest 363 418 28,500 500 Climbing Atlanta Center
Wed 07:09:17 PM 34.2608 -82.7067 222° Southwest 363 418 29,000 500 Climbing Atlanta Center
Wed 07:10:17 PM 34.1825 -82.7908 221° Southwest 363 418 29,500 500 Climbing Atlanta Center
Wed 07:11:17 PM 34.1081 -82.8697 219° Southwest 363 418 30,000 500 Climbing Atlanta Center
Wed 07:12:17 PM 34.0272 -82.9483 222° Southwest 368 423 30,500 500 Climbing Atlanta Center
Wed 07:13:17 PM 33.9508 -83.0322 221° Southwest 368 423 31,000 500 Climbing Atlanta Center
Wed 07:14:17 PM 33.8742 -83.1131 222° Southwest 368 423 31,500 500 Climbing Atlanta Center
Wed 07:15:17 PM 33.7997 -83.1939 221° Southwest 363 418 32,000 250 Climbing Atlanta Center
Wed 07:16:17 PM 33.7208 -83.2769 222° Southwest 369 425 32,000  Level Atlanta Center
Wed 07:17:17 PM 33.6503 -83.3525 220° Southwest 376 433 32,000  Level Atlanta Center
Wed 07:18:17 PM 33.5714 -83.4331 222° Southwest 381 438 32,000  Level Atlanta Center
Wed 07:19:17 PM 33.4947 -83.5156 220° Southwest 381 438 32,000  Level Atlanta Center
Wed 07:20:17 PM 33.4178 -83.5933 222° Southwest 381 438 32,000  Level Atlanta Center
Wed 07:21:17 PM 33.3408 -83.6758 220° Southwest 381 438 32,000  Level Atlanta Center
Wed 07:22:17 PM 33.2594 -83.7581 221° Southwest 381 438 32,000  Level Atlanta Center
Wed 07:23:17 PM 33.1719 -83.8478 221° Southwest 386 444 32,000  Level Atlanta Center
Wed 07:24:17 PM 33.0928 -83.9297 222° Southwest 386 444 32,000  Level Atlanta Center
Wed 07:25:29 PM 33.0136 -84.0142 222° Southwest 386 444 32,000  Level Atlanta Center
Wed 07:26:29 PM 32.9175 -84.1156 221° Southwest 386 444 32,000  Level Atlanta Center
Wed 07:27:29 PM 32.8361 -84.1994 219° Southwest 386 444 32,000  Level Atlanta Center
Wed 07:28:29 PM 32.7525 -84.2808 222° Southwest 386 444 32,000  Level Atlanta Center
Wed 07:29:29 PM 32.6750 -84.3647 219° Southwest 386 444 32,000  Level Atlanta Center
Wed 07:30:29 PM 32.5933 -84.4431 221° Southwest 386 444 32,000  Level Atlanta Center
Wed 07:31:29 PM 32.5075 -84.5314 220° Southwest 386 444 32,000  Level Atlanta Center
Wed 07:32:29 PM 32.4278 -84.6097 221° Southwest 386 444 32,000  Level Atlanta Center
Wed 07:33:29 PM 32.3461 -84.6928 221° Southwest 386 444 32,000  Level Atlanta Center
Wed 07:34:29 PM 32.2661 -84.7758 220° Southwest 386 444 32,000  Level Atlanta Center
Wed 07:35:29 PM 32.1906 -84.8511 220° Southwest 386 444 32,000 -414 Level Atlanta Center
Wed 07:37:23 PM 32.0361 -85.0025 219° Southwest 374 430 30,800 -931 Descending Jacksonville Center
Wed 07:38:23 PM 31.9533 -85.0817 221° Southwest 380 437 29,300 -1,500 Descending Jacksonville Center
Wed 07:39:23 PM 31.8728 -85.1628 221° Southwest 386 444 27,800 -1,550 Descending Jacksonville Center
Wed 07:40:23 PM 31.7856 -85.2511 220° Southwest 386 444 26,200 -1,650 Descending Jacksonville Center
Wed 07:41:23 PM 31.7067 -85.3297 221° Southwest 379 436 24,500 -1,100 Descending Jacksonville Center
Wed 07:42:23 PM 31.6344 -85.4033 219° Southwest 371 427 24,000 -250 Descending Jacksonville Center
Wed 07:43:23 PM 31.5642 -85.4697 222° Southwest 345 397 24,000  Level Jacksonville Center
Wed 07:44:23 PM 31.4958 -85.5408 219° Southwest 329 379 24,000  Level Jacksonville Center
Wed 07:45:23 PM 31.4256 -85.6072 221° Southwest 329 379 24,000  Level Jacksonville Center
Wed 07:46:23 PM 31.3531 -85.6806 220° Southwest 339 390 24,000 -650 Level Jacksonville Center
Wed 07:47:23 PM 31.2825 -85.7489 221° Southwest 339 390 22,700 -1,700 Descending Jacksonville Center
Wed 07:48:23 PM 31.2164 -85.8172 219° Southwest 344 396 20,600 -2,300 Descending Jacksonville Center
Wed 07:49:23 PM 31.1417 -85.8878 220° Southwest 344 396 18,100 -2,450 Descending Jacksonville Center
Wed 07:50:23 PM 31.0689 -85.9583 220° Southwest 344 396 15,700 -2,550 Descending Jacksonville Center
Wed 07:51:23 PM 30.9942 -86.0308 219° Southwest 328 377 13,000 -2,300 Descending Jacksonville Center
Wed 07:52:23 PM 30.9278 -86.0942 227° Southwest 328 377 11,100 -1,700 Descending Jacksonville Center
Wed 07:53:23 PM 30.8739 -86.1625 234° Southwest 309 356 9,600 -1,800 Descending Jacksonville Center
Wed 07:54:23 PM 30.8281 -86.2358 233° Southwest 294 338 7,500 -2,050 Descending Jacksonville Center
Wed 07:55:23 PM 30.7822 -86.3067 233° Southwest 289 333 5,500 -2,000 Descending Jacksonville Center
Wed 07:56:23 PM 30.7367 -86.3775 234° Southwest 283 326 3,500 -1,750 Descending Jacksonville Center
Wed 07:57:23 PM 30.6928 -86.4483 203° Southwest 283 326 2,000 -750 Descending Jacksonville Center
Wed 07:58:23 PM 30.6378 -86.4753 203° Southwest 243 280 2,000  Level Jacksonville Center

Login

Don't have an account? Register now (free) for customized features, flight alerts, and more!